Time,TemperatureF,DewpointF,PressureIn,WindDirection,WindDirectionDegrees,WindSpeedMPH,WindSpeedGustMPH,Humidity,HourlyPrecipIn,Conditions,Clouds,dailyrainin,SoftwareType,DateUTC
2013-03-25 00:04:00,73.0,71.0,29.76,SSW,196,0.0,-999.0,93,-99.99,,,0.03,weatherlink.com 1.10,2013-03-25 04:04:00,
2013-03-25 00:19:00,73.4,71.0,29.75,SW,214,0.0,-999.0,93,-99.99,,,0.00,weatherlink.com 1.10,2013-03-25 04:19:00,
2013-03-25 00:34:00,73.6,72.0,29.75,SSW,203,0.0,-999.0,93,-99.99,,,0.00,weatherlink.com 1.10,2013-03-25 04:34:00,
2013-03-25 00:49:00,73.9,72.0,29.75,SSW,207,0.0,-999.0,93,-99.99,,,0.00,weatherlink.com 1.10,2013-03-25 04:49:00,
2013-03-25 01:04:00,74.1,72.0,29.75,WSW,242,0.0,-999.0,93,-99.99,,,0.00,weatherlink.com 1.10,2013-03-25 05:04:00,
2013-03-25 01:19:00,74.4,72.0,29.75,SSW,206,0.0,-999.0,93,-99.99,,,0.01,weatherlink.com 1.10,2013-03-25 05:19:00,
2013-03-25 01:34:00,74.5,72.0,29.75,SW,217,0.0,-999.0,93,-99.99,,,0.01,weatherlink.com 1.10,2013-03-25 05:34:00,
2013-03-25 01:48:00,74.6,73.0,29.75,SW,221,0.0,-999.0,93,-99.99,,,0.01,weatherlink.com 1.10,2013-03-25 05:48:00,
2013-03-25 02:04:00,74.7,73.0,29.75,South,187,0.0,-999.0,93,-99.99,,,0.01,weatherlink.com 1.10,2013-03-25 06:04:00,
2013-03-25 02:19:00,74.8,73.0,29.74,West,259,0.0,-999.0,93,-99.99,,,0.01,weatherlink.com 1.10,2013-03-25 06:19:00,
2013-03-25 02:34:00,74.6,73.0,29.74,SE,134,0.0,-999.0,93,-99.99,,,0.01,weatherlink.com 1.10,2013-03-25 06:34:00,
2013-03-25 02:49:00,74.5,73.0,29.74,WSW,256,0.0,-999.0,94,-99.99,,,0.01,weatherlink.com 1.10,2013-03-25 06:49:00,
2013-03-25 03:03:00,74.6,73.0,29.74,SW,223,1.0,-999.0,94,-99.99,,,0.01,weatherlink.com 1.10,2013-03-25 07:03:00,
2013-03-25 03:18:00,74.8,73.0,29.74,WSW,258,1.0,-999.0,93,-99.99,,,0.01,weatherlink.com 1.10,2013-03-25 07:18:00,
2013-03-25 03:33:00,74.9,73.0,29.74,WSW,248,1.0,-999.0,93,-99.99,,,0.01,weatherlink.com 1.10,2013-03-25 07:33:00,
2013-03-25 03:49:00,74.6,73.0,29.74,WSW,256,0.0,-999.0,94,-99.99,,,0.01,weatherlink.com 1.10,2013-03-25 07:49:00,
2013-03-25 04:03:00,74.5,73.0,29.74,West,269,0.0,-999.0,94,-99.99,,,0.01,weatherlink.com 1.10,2013-03-25 08:03:00,
2013-03-25 04:19:00,74.4,73.0,29.74,SW,226,0.0,-999.0,95,-99.99,,,0.01,weatherlink.com 1.10,2013-03-25 08:19:00,
2013-03-25 04:34:00,74.4,73.0,29.74,WNW,288,1.0,-999.0,95,-99.99,,,0.01,weatherlink.com 1.10,2013-03-25 08:34:00,
2013-03-25 04:49:00,74.4,73.0,29.74,WSW,249,0.0,-999.0,94,-99.99,,,0.01,weatherlink.com 1.10,2013-03-25 08:49:00,
2013-03-25 05:04:00,74.4,73.0,29.74,WSW,257,0.0,-999.0,94,-99.99,,,0.01,weatherlink.com 1.10,2013-03-25 09:04:00,
2013-03-25 05:18:00,74.3,73.0,29.74,WNW,287,4.0,-999.0,94,-99.99,,,0.01,weatherlink.com 1.10,2013-03-25 09:18:00,
2013-03-25 05:34:00,74.1,72.0,29.74,NNE,13,4.0,-999.0,93,-99.99,,,0.01,weatherlink.com 1.10,2013-03-25 09:34:00,
2013-03-25 05:49:00,73.7,72.0,29.74,West,279,1.0,-999.0,93,-99.99,,,0.01,weatherlink.com 1.10,2013-03-25 09:49:00,
2013-03-25 06:04:00,73.4,71.0,29.74,NW,316,2.0,-999.0,93,-99.99,,,0.01,weatherlink.com 1.10,2013-03-25 10:04:00,
2013-03-25 06:19:00,73.0,71.0,29.74,WNW,300,0.0,-999.0,93,-99.99,,,0.01,weatherlink.com 1.10,2013-03-25 10:19:00,
2013-03-25 06:34:00,72.6,71.0,29.74,WNW,288,0.0,-999.0,93,-99.99,,,0.01,weatherlink.com 1.10,2013-03-25 10:34:00,
2013-03-25 06:50:00,72.3,71.0,29.74,WNW,288,0.0,-999.0,94,-99.99,,,0.01,weatherlink.com 1.10,2013-03-25 10:50:00,
2013-03-25 07:04:00,72.0,70.0,29.75,WNW,288,0.0,-999.0,94,-99.99,,,0.01,weatherlink.com 1.10,2013-03-25 11:04:00,
2013-03-25 07:19:00,71.8,70.0,29.76,WNW,292,0.0,-999.0,94,-99.99,,,0.01,weatherlink.com 1.10,2013-03-25 11:19:00,
2013-03-25 07:34:00,71.6,69.0,29.77,WNW,295,1.0,-999.0,92,-99.99,,,0.01,weatherlink.com 1.10,2013-03-25 11:34:00,
2013-03-25 07:49:00,71.5,69.0,29.78,NW,316,2.0,-999.0,91,-99.99,,,0.01,weatherlink.com 1.10,2013-03-25 11:49:00,
2013-03-25 08:04:00,71.3,69.0,29.79,NW,313,1.0,-999.0,91,-99.99,,,0.01,weatherlink.com 1.10,2013-03-25 12:04:00,
2013-03-25 08:19:00,70.6,66.0,29.80,NW,305,4.0,-999.0,86,-99.99,,,0.01,weatherlink.com 1.10,2013-03-25 12:19:00,
2013-03-25 08:34:00,71.1,67.0,29.82,WNW,303,0.0,-999.0,86,-99.99,,,0.01,weatherlink.com 1.10,2013-03-25 12:34:00,
2013-03-25 08:49:00,71.6,67.0,29.83,West,276,0.0,-999.0,84,-99.99,,,0.01,weatherlink.com 1.10,2013-03-25 12:49:00,
2013-03-25 09:04:00,72.2,67.0,29.84,NW,309,1.0,-999.0,83,-99.99,,,0.01,weatherlink.com 1.10,2013-03-25 13:04:00,
2013-03-25 09:20:00,71.9,66.0,29.85,WNW,291,3.0,-999.0,82,-99.99,,,0.01,weatherlink.com 1.10,2013-03-25 13:20:00,
2013-03-25 09:34:00,72.3,67.0,29.85,NW,320,0.0,-999.0,82,-99.99,,,0.01,weatherlink.com 1.10,2013-03-25 13:34:00,
2013-03-25 09:50:00,71.7,66.0,29.85,West,263,2.0,-999.0,82,-99.99,,,0.01,weatherlink.com 1.10,2013-03-25 13:50:00,
2013-03-25 10:04:00,72.4,66.0,29.86,NW,307,1.0,-999.0,80,-99.99,,,0.01,weatherlink.com 1.10,2013-03-25 14:04:00,
2013-03-25 10:19:00,72.3,65.0,29.86,NW,313,1.0,-999.0,79,-99.99,,,0.01,weatherlink.com 1.10,2013-03-25 14:19:00,
2013-03-25 10:34:00,72.1,65.0,29.86,WSW,256,3.0,-999.0,79,-99.99,,,0.01,weatherlink.com 1.10,2013-03-25 14:34:00,
2013-03-25 10:50:00,73.2,66.0,29.87,WNW,291,2.0,-999.0,78,-99.99,,,0.01,weatherlink.com 1.10,2013-03-25 14:50:00,
2013-03-25 11:05:00,73.9,65.0,29.87,NW,317,4.0,-999.0,74,-99.99,,,0.01,weatherlink.com 1.10,2013-03-25 15:05:00,
2013-03-25 11:19:00,73.2,65.0,29.87,NNW,336,3.0,-999.0,75,-99.99,,,0.01,weatherlink.com 1.10,2013-03-25 15:19:00,
2013-03-25 11:34:00,74.1,65.0,29.87,NW,323,2.0,-999.0,72,-99.99,,,0.01,weatherlink.com 1.10,2013-03-25 15:34:00,
2013-03-25 11:49:00,74.4,62.0,29.87,NW,323,8.0,-999.0,65,-99.99,,,0.01,weatherlink.com 1.10,2013-03-25 15:49:00,
2013-03-25 12:04:00,74.2,62.0,29.87,NNE,19,4.0,-999.0,65,-99.99,,,0.01,weatherlink.com 1.10,2013-03-25 16:04:00,
2013-03-25 12:20:00,74.8,61.0,29.87,NNW,340,6.0,-999.0,62,-99.99,,,0.01,weatherlink.com 1.10,2013-03-25 16:20:00,
2013-03-25 12:35:00,75.2,60.0,29.87,NW,309,3.0,-999.0,60,-99.99,,,0.01,weatherlink.com 1.10,2013-03-25 16:35:00,
2013-03-25 12:50:00,75.2,58.0,29.87,West,259,3.0,-999.0,55,-99.99,,,0.01,weatherlink.com 1.10,2013-03-25 16:50:00,
2013-03-25 13:05:00,75.7,57.0,29.87,West,267,2.0,-999.0,52,-99.99,,,0.01,weatherlink.com 1.10,2013-03-25 17:05:00,
2013-03-25 13:35:00,76.1,55.0,29.86,WSW,247,6.0,-999.0,48,-99.99,,,0.01,weatherlink.com 1.10,2013-03-25 17:35:00,
2013-03-25 13:50:00,76.1,55.0,29.86,SW,223,2.0,-999.0,49,-99.99,,,0.01,weatherlink.com 1.10,2013-03-25 17:50:00,
2013-03-25 14:05:00,76.4,55.0,29.86,WNW,289,4.0,-999.0,48,-99.99,,,0.01,weatherlink.com 1.10,2013-03-25 18:05:00,
2013-03-25 14:20:00,76.6,55.0,29.85,NW,313,8.0,-999.0,48,-99.99,,,0.01,weatherlink.com 1.10,2013-03-25 18:20:00,
2013-03-25 14:35:00,77.0,57.0,29.85,WNW,293,3.0,-999.0,51,-99.99,,,0.01,weatherlink.com 1.10,2013-03-25 18:35:00,
2013-03-25 14:49:00,77.0,58.0,29.85,WNW,300,1.0,-999.0,53,-99.99,,,0.01,weatherlink.com 1.10,2013-03-25 18:49:00,
2013-03-25 15:04:00,76.8,52.0,29.85,WNW,298,5.0,-999.0,42,-99.99,,,0.01,weatherlink.com 1.10,2013-03-25 19:04:00,
2013-03-25 15:20:00,77.0,50.0,29.84,West,280,4.0,-999.0,39,-99.99,,,0.01,weatherlink.com 1.10,2013-03-25 19:20:00,
2013-03-25 15:35:00,77.5,54.0,29.84,WNW,294,3.0,-999.0,44,-99.99,,,0.01,weatherlink.com 1.10,2013-03-25 19:35:00,
2013-03-25 15:50:00,77.5,54.0,29.84,WSW,242,4.0,-999.0,45,-99.99,,,0.01,weatherlink.com 1.10,2013-03-25 19:50:00,
2013-03-25 16:05:00,76.9,54.0,29.84,WNW,293,6.0,-999.0,46,-99.99,,,0.01,weatherlink.com 1.10,2013-03-25 20:05:00,
2013-03-25 16:20:00,76.3,55.0,29.84,NNE,26,5.0,-999.0,47,-99.99,,,0.01,weatherlink.com 1.10,2013-03-25 20:20:00,
2013-03-25 16:35:00,76.4,55.0,29.84,WNW,287,5.0,-999.0,47,-99.99,,,0.01,weatherlink.com 1.10,2013-03-25 20:35:00,
2013-03-25 16:50:00,76.2,53.0,29.84,NNW,329,5.0,-999.0,44,-99.99,,,0.01,weatherlink.com 1.10,2013-03-25 20:50:00,
2013-03-25 17:05:00,75.5,53.0,29.84,NNW,329,5.0,-999.0,46,-99.99,,,0.01,weatherlink.com 1.10,2013-03-25 21:05:00,
2013-03-25 17:20:00,75.2,47.0,29.85,NW,316,6.0,-999.0,37,-99.99,,,0.01,weatherlink.com 1.10,2013-03-25 21:20:00,
2013-03-25 17:35:00,74.8,47.0,29.86,NW,323,4.0,-999.0,37,-99.99,,,0.01,weatherlink.com 1.10,2013-03-25 21:35:00,
2013-03-25 17:49:00,75.2,49.0,29.86,NW,313,2.0,-999.0,40,-99.99,,,0.01,weatherlink.com 1.10,2013-03-25 21:49:00,
2013-03-25 18:04:00,75.2,49.0,29.86,NW,315,2.0,-999.0,40,-99.99,,,0.01,weatherlink.com 1.10,2013-03-25 22:04:00,
2013-03-25 18:20:00,74.8,49.0,29.87,NNW,345,3.0,-999.0,40,-99.99,,,0.01,weatherlink.com 1.10,2013-03-25 22:20:00,
2013-03-25 18:35:00,74.4,48.0,29.88,NW,321,4.0,-999.0,40,-99.99,,,0.01,weatherlink.com 1.10,2013-03-25 22:35:00,
2013-03-25 18:50:00,74.1,49.0,29.88,NW,319,2.0,-999.0,41,-99.99,,,0.01,weatherlink.com 1.10,2013-03-25 22:50:00,
2013-03-25 19:05:00,73.9,48.0,29.88,NW,320,5.0,-999.0,40,-99.99,,,0.01,weatherlink.com 1.10,2013-03-25 23:05:00,
2013-03-25 19:20:00,73.3,49.0,29.89,NW,326,2.0,-999.0,42,-99.99,,,0.01,weatherlink.com 1.10,2013-03-25 23:20:00,
2013-03-25 19:35:00,72.9,50.0,29.89,NNW,333,0.0,-999.0,44,-99.99,,,0.01,weatherlink.com 1.10,2013-03-25 23:35:00,
2013-03-25 19:50:00,72.3,51.0,29.90,NW,314,1.0,-999.0,48,-99.99,,,0.01,weatherlink.com 1.10,2013-03-25 23:50:00,
2013-03-25 20:05:00,71.6,48.0,29.91,WNW,286,1.0,-999.0,43,-99.99,,,0.01,weatherlink.com 1.10,2013-03-26 00:05:00,
2013-03-25 20:20:00,70.9,48.0,29.91,NW,321,1.0,-999.0,44,-99.99,,,0.01,weatherlink.com 1.10,2013-03-26 00:20:00,
2013-03-25 20:35:00,70.1,48.0,29.92,NW,309,1.0,-999.0,46,-99.99,,,0.01,weatherlink.com 1.10,2013-03-26 00:35:00,
2013-03-25 20:50:00,69.7,47.0,29.93,NW,326,3.0,-999.0,44,-99.99,,,0.01,weatherlink.com 1.10,2013-03-26 00:50:00,
2013-03-25 21:05:00,69.3,45.0,29.93,NE,40,1.0,-999.0,42,-99.99,,,0.01,weatherlink.com 1.10,2013-03-26 01:05:00,
2013-03-25 21:20:00,68.8,44.0,29.94,NW,316,2.0,-999.0,41,-99.99,,,0.01,weatherlink.com 1.10,2013-03-26 01:20:00,
2013-03-25 21:35:00,68.1,45.0,29.94,NW,323,3.0,-999.0,43,-99.99,,,0.01,weatherlink.com 1.10,2013-03-26 01:35:00,
2013-03-25 21:50:00,67.3,46.0,29.95,NW,321,1.0,-999.0,47,-99.99,,,0.01,weatherlink.com 1.10,2013-03-26 01:50:00,
2013-03-25 22:05:00,66.6,47.0,29.95,NNW,336,4.0,-999.0,50,-99.99,,,0.01,weatherlink.com 1.10,2013-03-26 02:05:00,
2013-03-25 22:20:00,66.0,48.0,29.96,NW,317,2.0,-999.0,52,-99.99,,,0.01,weatherlink.com 1.10,2013-03-26 02:20:00,
2013-03-25 22:35:00,65.8,47.0,29.96,NW,319,2.0,-999.0,51,-99.99,,,0.01,weatherlink.com 1.10,2013-03-26 02:35:00,
2013-03-25 22:50:00,65.6,47.0,29.97,NNW,348,3.0,-999.0,51,-99.99,,,0.01,weatherlink.com 1.10,2013-03-26 02:50:00,
2013-03-25 23:05:00,65.2,48.0,29.97,NW,313,0.0,-999.0,54,-99.99,,,0.01,weatherlink.com 1.10,2013-03-26 03:05:00,
2013-03-25 23:20:00,64.8,47.0,29.97,NW,310,4.0,-999.0,52,-99.99,,,0.01,weatherlink.com 1.10,2013-03-26 03:20:00,
2013-03-25 23:35:00,64.8,46.0,29.98,NNW,330,2.0,-999.0,50,-99.99,,,0.01,weatherlink.com 1.10,2013-03-26 03:35:00,
2013-03-25 23:50:00,64.4,43.0,29.98,NNW,329,1.0,-999.0,46,-99.99,,,0.01,weatherlink.com 1.10,2013-03-26 03:50:00,